sensor_id;sensor_type;location;lat;lon;timestamp;temperature;humidity
19734;DHT22;10018;51.230;7.860;2023-11-21T00:01:22;8.10;99.90
19734;DHT22;10018;51.230;7.860;2023-11-21T00:03:48;8.10;99.90
19734;DHT22;10018;51.230;7.860;2023-11-21T00:06:14;8.10;99.90
19734;DHT22;10018;51.230;7.860;2023-11-21T00:08:40;8.10;99.90
19734;DHT22;10018;51.230;7.860;2023-11-21T00:11:05;8.10;99.90
19734;DHT22;10018;51.230;7.860;2023-11-21T00:13:32;8.10;99.90
19734;DHT22;10018;51.230;7.860;2023-11-21T00:16:00;8.10;99.90
19734;DHT22;10018;51.230;7.860;2023-11-21T00:18:26;8.10;99.90
19734;DHT22;10018;51.230;7.860;2023-11-21T00:20:51;8.00;99.90
19734;DHT22;10018;51.230;7.860;2023-11-21T00:23:17;8.10;99.90
19734;DHT22;10018;51.230;7.860;2023-11-21T00:25:43;8.10;99.90
19734;DHT22;10018;51.230;7.860;2023-11-21T00:28:11;8.10;99.90
19734;DHT22;10018;51.230;7.860;2023-11-21T00:30:37;8.10;99.90
19734;DHT22;10018;51.230;7.860;2023-11-21T00:33:03;8.10;99.90
19734;DHT22;10018;51.230;7.860;2023-11-21T00:35:29;8.10;99.90
19734;DHT22;10018;51.230;7.860;2023-11-21T00:37:55;8.10;99.90
19734;DHT22;10018;51.230;7.860;2023-11-21T00:40:21;8.10;99.90
19734;DHT22;10018;51.230;7.860;2023-11-21T00:42:47;8.10;99.90
19734;DHT22;10018;51.230;7.860;2023-11-21T00:45:13;8.10;99.90
19734;DHT22;10018;51.230;7.860;2023-11-21T00:47:38;8.10;99.90
19734;DHT22;10018;51.230;7.860;2023-11-21T00:50:05;8.10;99.90
19734;DHT22;10018;51.230;7.860;2023-11-21T00:52:32;8.00;99.90
19734;DHT22;10018;51.230;7.860;2023-11-21T00:54:57;8.00;99.90
19734;DHT22;10018;51.230;7.860;2023-11-21T00:57:26;8.00;99.90
19734;DHT22;10018;51.230;7.860;2023-11-21T00:59:51;8.10;99.90
19734;DHT22;10018;51.230;7.860;2023-11-21T01:02:17;8.10;99.90
19734;DHT22;10018;51.230;7.860;2023-11-21T01:04:45;8.00;99.90
19734;DHT22;10018;51.230;7.860;2023-11-21T01:07:10;8.00;99.90
19734;DHT22;10018;51.230;7.860;2023-11-21T01:09:36;8.00;99.90
19734;DHT22;10018;51.230;7.860;2023-11-21T01:12:04;8.00;99.90
19734;DHT22;10018;51.230;7.860;2023-11-21T01:14:29;8.00;99.90
19734;DHT22;10018;51.230;7.860;2023-11-21T01:16:57;8.00;99.90
19734;DHT22;10018;51.230;7.860;2023-11-21T01:19:23;7.90;99.90
19734;DHT22;10018;51.230;7.860;2023-11-21T01:21:48;7.90;99.90
19734;DHT22;10018;51.230;7.860;2023-11-21T01:24:14;7.90;99.90
19734;DHT22;10018;51.230;7.860;2023-11-21T01:26:40;7.90;99.90
19734;DHT22;10018;51.230;7.860;2023-11-21T01:29:05;7.90;99.90
19734;DHT22;10018;51.230;7.860;2023-11-21T01:31:33;7.90;99.90
19734;DHT22;10018;51.230;7.860;2023-11-21T01:33:59;7.90;99.90
19734;DHT22;10018;51.230;7.860;2023-11-21T01:36:30;7.90;99.90
19734;DHT22;10018;51.230;7.860;2023-11-21T01:38:57;7.90;99.90
19734;DHT22;10018;51.230;7.860;2023-11-21T01:41:27;7.90;99.90
19734;DHT22;10018;51.230;7.860;2023-11-21T01:43:54;7.80;99.90
19734;DHT22;10018;51.230;7.860;2023-11-21T01:46:20;7.80;99.90
19734;DHT22;10018;51.230;7.860;2023-11-21T01:48:48;7.80;99.90
19734;DHT22;10018;51.230;7.860;2023-11-21T01:51:14;7.80;99.90
19734;DHT22;10018;51.230;7.860;2023-11-21T01:53:42;7.80;99.90
19734;DHT22;10018;51.230;7.860;2023-11-21T01:56:10;7.70;99.90
19734;DHT22;10018;51.230;7.860;2023-11-21T01:58:36;7.80;99.90
19734;DHT22;10018;51.230;7.860;2023-11-21T02:01:02;7.80;99.90
19734;DHT22;10018;51.230;7.860;2023-11-21T02:03:27;7.80;99.90
19734;DHT22;10018;51.230;7.860;2023-11-21T02:05:53;7.80;99.90
19734;DHT22;10018;51.230;7.860;2023-11-21T02:08:19;7.90;99.90
19734;DHT22;10018;51.230;7.860;2023-11-21T02:10:45;7.80;99.90
19734;DHT22;10018;51.230;7.860;2023-11-21T02:13:13;7.80;99.90
19734;DHT22;10018;51.230;7.860;2023-11-21T02:15:38;7.80;99.90
19734;DHT22;10018;51.230;7.860;2023-11-21T02:18:07;7.80;99.90
19734;DHT22;10018;51.230;7.860;2023-11-21T02:20:32;7.80;99.90
19734;DHT22;10018;51.230;7.860;2023-11-21T02:23:00;7.80;99.90
19734;DHT22;10018;51.230;7.860;2023-11-21T02:25:27;7.80;99.90
19734;DHT22;10018;51.230;7.860;2023-11-21T02:28:02;7.80;99.90
19734;DHT22;10018;51.230;7.860;2023-11-21T02:30:28;7.80;99.90
19734;DHT22;10018;51.230;7.860;2023-11-21T02:32:55;7.80;99.90
19734;DHT22;10018;51.230;7.860;2023-11-21T02:35:24;7.80;99.90
19734;DHT22;10018;51.230;7.860;2023-11-21T02:37:56;7.80;99.90
19734;DHT22;10018;51.230;7.860;2023-11-21T02:40:21;7.90;99.90
19734;DHT22;10018;51.230;7.860;2023-11-21T02:42:47;7.90;99.90
19734;DHT22;10018;51.230;7.860;2023-11-21T02:45:14;7.90;99.90
19734;DHT22;10018;51.230;7.860;2023-11-21T02:47:42;7.90;99.90
19734;DHT22;10018;51.230;7.860;2023-11-21T02:50:09;7.90;99.90
19734;DHT22;10018;51.230;7.860;2023-11-21T02:52:35;7.90;99.90
19734;DHT22;10018;51.230;7.860;2023-11-21T02:55:02;7.90;99.90
19734;DHT22;10018;51.230;7.860;2023-11-21T02:57:29;7.90;99.90
19734;DHT22;10018;51.230;7.860;2023-11-21T02:59:55;7.90;99.90
19734;DHT22;10018;51.230;7.860;2023-11-21T03:02:21;7.90;99.90
19734;DHT22;10018;51.230;7.860;2023-11-21T03:04:47;7.90;99.90
19734;DHT22;10018;51.230;7.860;2023-11-21T03:07:18;7.90;99.90
19734;DHT22;10018;51.230;7.860;2023-11-21T03:09:45;7.80;99.90
19734;DHT22;10018;51.230;7.860;2023-11-21T03:12:11;7.80;99.90
19734;DHT22;10018;51.230;7.860;2023-11-21T03:14:38;7.90;99.90
19734;DHT22;10018;51.230;7.860;2023-11-21T03:17:03;7.80;99.90
19734;DHT22;10018;51.230;7.860;2023-11-21T03:19:30;7.80;99.90
19734;DHT22;10018;51.230;7.860;2023-11-21T03:21:56;7.80;99.90
19734;DHT22;10018;51.230;7.860;2023-11-21T03:24:21;7.80;99.90
19734;DHT22;10018;51.230;7.860;2023-11-21T03:26:48;7.80;99.90
19734;DHT22;10018;51.230;7.860;2023-11-21T03:29:14;7.70;99.90
19734;DHT22;10018;51.230;7.860;2023-11-21T03:31:40;7.70;99.90
19734;DHT22;10018;51.230;7.860;2023-11-21T03:34:06;7.70;99.90
19734;DHT22;10018;51.230;7.860;2023-11-21T03:36:34;7.70;99.90
19734;DHT22;10018;51.230;7.860;2023-11-21T03:39:02;7.80;99.90
19734;DHT22;10018;51.230;7.860;2023-11-21T03:41:28;7.80;99.90
19734;DHT22;10018;51.230;7.860;2023-11-21T03:43:53;7.90;99.90
19734;DHT22;10018;51.230;7.860;2023-11-21T03:46:19;7.90;99.90
19734;DHT22;10018;51.230;7.860;2023-11-21T03:48:44;7.90;99.90
19734;DHT22;10018;51.230;7.860;2023-11-21T03:51:10;7.90;99.90
19734;DHT22;10018;51.230;7.860;2023-11-21T03:53:35;8.00;99.90
19734;DHT22;10018;51.230;7.860;2023-11-21T03:56:02;7.90;99.90
19734;DHT22;10018;51.230;7.860;2023-11-21T03:58:29;8.00;99.90
19734;DHT22;10018;51.230;7.860;2023-11-21T04:00:56;7.90;99.90
19734;DHT22;10018;51.230;7.860;2023-11-21T04:03:22;7.90;99.90
19734;DHT22;10018;51.230;7.860;2023-11-21T04:05:47;7.90;99.90
19734;DHT22;10018;51.230;7.860;2023-11-21T04:08:15;7.90;99.90
19734;DHT22;10018;51.230;7.860;2023-11-21T04:10:41;7.90;99.90
19734;DHT22;10018;51.230;7.860;2023-11-21T04:13:09;7.80;99.90
19734;DHT22;10018;51.230;7.860;2023-11-21T04:15:37;7.80;99.90
19734;DHT22;10018;51.230;7.860;2023-11-21T04:18:02;7.80;99.90
19734;DHT22;10018;51.230;7.860;2023-11-21T04:20:28;7.80;99.90
19734;DHT22;10018;51.230;7.860;2023-11-21T04:22:56;7.80;99.90
19734;DHT22;10018;51.230;7.860;2023-11-21T04:25:21;7.80;99.90
19734;DHT22;10018;51.230;7.860;2023-11-21T04:27:48;7.80;99.90
19734;DHT22;10018;51.230;7.860;2023-11-21T04:30:14;7.80;99.90
19734;DHT22;10018;51.230;7.860;2023-11-21T04:32:40;7.80;99.90
19734;DHT22;10018;51.230;7.860;2023-11-21T04:35:07;7.80;99.90
19734;DHT22;10018;51.230;7.860;2023-11-21T04:37:34;7.80;99.90
19734;DHT22;10018;51.230;7.860;2023-11-21T04:39:59;7.80;99.90
19734;DHT22;10018;51.230;7.860;2023-11-21T04:42:25;7.90;99.90
19734;DHT22;10018;51.230;7.860;2023-11-21T04:44:50;7.90;99.90
19734;DHT22;10018;51.230;7.860;2023-11-21T04:47:18;7.90;99.90
19734;DHT22;10018;51.230;7.860;2023-11-21T04:49:46;7.80;99.90
19734;DHT22;10018;51.230;7.860;2023-11-21T04:52:14;7.80;99.90
19734;DHT22;10018;51.230;7.860;2023-11-21T04:54:40;7.80;99.90
19734;DHT22;10018;51.230;7.860;2023-11-21T04:57:06;7.80;99.90
19734;DHT22;10018;51.230;7.860;2023-11-21T04:59:33;7.80;99.90
19734;DHT22;10018;51.230;7.860;2023-11-21T05:01:59;7.80;99.90
19734;DHT22;10018;51.230;7.860;2023-11-21T05:04:25;7.80;99.90
19734;DHT22;10018;51.230;7.860;2023-11-21T05:06:51;7.80;99.90
19734;DHT22;10018;51.230;7.860;2023-11-21T05:09:19;7.80;99.90
19734;DHT22;10018;51.230;7.860;2023-11-21T05:11:44;7.80;99.90
19734;DHT22;10018;51.230;7.860;2023-11-21T05:14:10;7.80;99.90
19734;DHT22;10018;51.230;7.860;2023-11-21T05:16:36;7.80;99.90
19734;DHT22;10018;51.230;7.860;2023-11-21T05:19:04;7.80;99.90
19734;DHT22;10018;51.230;7.860;2023-11-21T05:21:30;7.80;99.90
19734;DHT22;10018;51.230;7.860;2023-11-21T05:23:59;7.90;99.90
19734;DHT22;10018;51.230;7.860;2023-11-21T05:26:25;7.90;99.90
19734;DHT22;10018;51.230;7.860;2023-11-21T05:28:53;7.90;99.90
19734;DHT22;10018;51.230;7.860;2023-11-21T05:31:18;7.90;99.90
19734;DHT22;10018;51.230;7.860;2023-11-21T05:33:44;7.90;99.90
19734;DHT22;10018;51.230;7.860;2023-11-21T05:36:10;7.90;99.90
19734;DHT22;10018;51.230;7.860;2023-11-21T05:38:36;7.90;99.90
19734;DHT22;10018;51.230;7.860;2023-11-21T05:41:05;7.90;99.90
19734;DHT22;10018;51.230;7.860;2023-11-21T05:43:30;7.80;99.90
19734;DHT22;10018;51.230;7.860;2023-11-21T05:45:57;7.80;99.90
19734;DHT22;10018;51.230;7.860;2023-11-21T05:48:23;7.70;99.90
19734;DHT22;10018;51.230;7.860;2023-11-21T05:50:51;7.70;99.90
19734;DHT22;10018;51.230;7.860;2023-11-21T05:53:16;7.80;99.90
19734;DHT22;10018;51.230;7.860;2023-11-21T05:55:46;7.90;99.90
19734;DHT22;10018;51.230;7.860;2023-11-21T05:58:13;7.90;99.90
19734;DHT22;10018;51.230;7.860;2023-11-21T06:00:42;7.90;99.90
19734;DHT22;10018;51.230;7.860;2023-11-21T06:03:10;7.90;99.90
19734;DHT22;10018;51.230;7.860;2023-11-21T06:05:35;7.80;99.90
19734;DHT22;10018;51.230;7.860;2023-11-21T06:08:03;7.80;99.90
19734;DHT22;10018;51.230;7.860;2023-11-21T06:10:29;7.90;99.90
19734;DHT22;10018;51.230;7.860;2023-11-21T06:12:57;7.90;99.90
19734;DHT22;10018;51.230;7.860;2023-11-21T06:15:23;7.90;99.90
19734;DHT22;10018;51.230;7.860;2023-11-21T06:17:49;7.90;99.90
19734;DHT22;10018;51.230;7.860;2023-11-21T06:20:18;7.90;99.90
19734;DHT22;10018;51.230;7.860;2023-11-21T06:22:45;7.90;99.90
19734;DHT22;10018;51.230;7.860;2023-11-21T06:25:12;7.80;99.90
19734;DHT22;10018;51.230;7.860;2023-11-21T06:27:43;7.90;99.90
19734;DHT22;10018;51.230;7.860;2023-11-21T06:30:12;7.90;99.90
19734;DHT22;10018;51.230;7.860;2023-11-21T06:32:39;7.90;99.90
19734;DHT22;10018;51.230;7.860;2023-11-21T06:35:06;8.00;99.90
19734;DHT22;10018;51.230;7.860;2023-11-21T06:37:32;8.00;99.90
19734;DHT22;10018;51.230;7.860;2023-11-21T06:39:59;8.00;99.90
19734;DHT22;10018;51.230;7.860;2023-11-21T06:42:25;8.00;99.90
19734;DHT22;10018;51.230;7.860;2023-11-21T06:44:54;8.00;99.90
19734;DHT22;10018;51.230;7.860;2023-11-21T06:47:22;7.90;99.90
19734;DHT22;10018;51.230;7.860;2023-11-21T06:49:52;7.90;99.90
19734;DHT22;10018;51.230;7.860;2023-11-21T06:52:18;7.90;99.90
19734;DHT22;10018;51.230;7.860;2023-11-21T06:54:44;8.00;99.90
19734;DHT22;10018;51.230;7.860;2023-11-21T06:57:10;8.00;99.90
19734;DHT22;10018;51.230;7.860;2023-11-21T06:59:36;7.90;99.90
19734;DHT22;10018;51.230;7.860;2023-11-21T07:02:02;8.00;99.90
19734;DHT22;10018;51.230;7.860;2023-11-21T07:04:27;8.00;99.90
19734;DHT22;10018;51.230;7.860;2023-11-21T07:06:53;8.00;99.90
19734;DHT22;10018;51.230;7.860;2023-11-21T07:09:21;8.00;99.90
19734;DHT22;10018;51.230;7.860;2023-11-21T07:11:52;8.00;99.90
19734;DHT22;10018;51.230;7.860;2023-11-21T07:14:18;7.90;99.90
19734;DHT22;10018;51.230;7.860;2023-11-21T07:16:47;7.90;99.90
19734;DHT22;10018;51.230;7.860;2023-11-21T07:19:13;7.90;99.90
19734;DHT22;10018;51.230;7.860;2023-11-21T07:21:39;7.90;99.90
19734;DHT22;10018;51.230;7.860;2023-11-21T07:24:08;8.00;99.90
19734;DHT22;10018;51.230;7.860;2023-11-21T07:26:34;8.00;99.90
19734;DHT22;10018;51.230;7.860;2023-11-21T07:29:04;8.00;99.90
19734;DHT22;10018;51.230;7.860;2023-11-21T07:31:30;8.00;99.90
19734;DHT22;10018;51.230;7.860;2023-11-21T07:33:56;8.00;99.90
19734;DHT22;10018;51.230;7.860;2023-11-21T07:36:23;8.00;99.90
19734;DHT22;10018;51.230;7.860;2023-11-21T07:38:49;8.10;99.90
19734;DHT22;10018;51.230;7.860;2023-11-21T07:41:15;8.10;99.90
19734;DHT22;10018;51.230;7.860;2023-11-21T07:43:43;8.00;99.90
19734;DHT22;10018;51.230;7.860;2023-11-21T07:46:12;8.10;99.90
19734;DHT22;10018;51.230;7.860;2023-11-21T07:48:39;8.10;99.90
19734;DHT22;10018;51.230;7.860;2023-11-21T07:51:05;8.20;99.90
19734;DHT22;10018;51.230;7.860;2023-11-21T07:53:32;8.20;99.90
19734;DHT22;10018;51.230;7.860;2023-11-21T07:56:03;8.20;99.90
19734;DHT22;10018;51.230;7.860;2023-11-21T07:58:28;8.20;99.90
19734;DHT22;10018;51.230;7.860;2023-11-21T08:00:54;8.20;99.90
19734;DHT22;10018;51.230;7.860;2023-11-21T08:03:20;8.30;99.90
19734;DHT22;10018;51.230;7.860;2023-11-21T08:05:46;8.20;99.90
19734;DHT22;10018;51.230;7.860;2023-11-21T08:08:12;8.30;99.90
19734;DHT22;10018;51.230;7.860;2023-11-21T08:10:40;8.30;99.90
19734;DHT22;10018;51.230;7.860;2023-11-21T08:13:07;8.30;99.90
19734;DHT22;10018;51.230;7.860;2023-11-21T08:15:34;8.30;99.90
19734;DHT22;10018;51.230;7.860;2023-11-21T08:18:00;8.40;99.90
19734;DHT22;10018;51.230;7.860;2023-11-21T08:20:26;8.40;99.90
19734;DHT22;10018;51.230;7.860;2023-11-21T08:22:52;8.40;99.90
19734;DHT22;10018;51.230;7.860;2023-11-21T08:25:18;8.50;99.90
19734;DHT22;10018;51.230;7.860;2023-11-21T08:27:46;8.50;99.90
19734;DHT22;10018;51.230;7.860;2023-11-21T08:30:12;8.50;99.90
19734;DHT22;10018;51.230;7.860;2023-11-21T08:32:39;8.50;99.90
19734;DHT22;10018;51.230;7.860;2023-11-21T08:35:07;8.50;99.90
19734;DHT22;10018;51.230;7.860;2023-11-21T08:37:33;8.50;99.90
19734;DHT22;10018;51.230;7.860;2023-11-21T08:40:05;8.50;99.90
19734;DHT22;10018;51.230;7.860;2023-11-21T08:42:35;8.60;99.90
19734;DHT22;10018;51.230;7.860;2023-11-21T08:45:01;8.60;99.90
19734;DHT22;10018;51.230;7.860;2023-11-21T08:47:28;8.60;99.90
19734;DHT22;10018;51.230;7.860;2023-11-21T08:49:54;8.70;99.90
19734;DHT22;10018;51.230;7.860;2023-11-21T08:52:20;8.70;99.90
19734;DHT22;10018;51.230;7.860;2023-11-21T08:54:50;8.80;99.90
19734;DHT22;10018;51.230;7.860;2023-11-21T08:57:23;8.80;99.90
19734;DHT22;10018;51.230;7.860;2023-11-21T08:59:48;8.80;99.90
19734;DHT22;10018;51.230;7.860;2023-11-21T09:02:14;8.90;99.90
19734;DHT22;10018;51.230;7.860;2023-11-21T09:04:44;8.80;99.90
19734;DHT22;10018;51.230;7.860;2023-11-21T09:07:09;8.80;99.90
19734;DHT22;10018;51.230;7.860;2023-11-21T09:09:35;8.80;99.90
19734;DHT22;10018;51.230;7.860;2023-11-21T09:12:01;8.90;99.90
19734;DHT22;10018;51.230;7.860;2023-11-21T09:14:27;8.90;99.90
19734;DHT22;10018;51.230;7.860;2023-11-21T09:16:52;8.90;99.90
19734;DHT22;10018;51.230;7.860;2023-11-21T09:19:18;9.00;99.90
19734;DHT22;10018;51.230;7.860;2023-11-21T09:21:43;9.00;99.90
19734;DHT22;10018;51.230;7.860;2023-11-21T09:24:09;9.00;99.90
19734;DHT22;10018;51.230;7.860;2023-11-21T09:26:34;9.00;99.90
19734;DHT22;10018;51.230;7.860;2023-11-21T09:29:00;9.00;99.90
19734;DHT22;10018;51.230;7.860;2023-11-21T09:31:27;9.00;99.90
19734;DHT22;10018;51.230;7.860;2023-11-21T09:33:53;9.00;99.90
19734;DHT22;10018;51.230;7.860;2023-11-21T09:36:18;9.00;99.90
19734;DHT22;10018;51.230;7.860;2023-11-21T09:38:44;9.10;99.90
19734;DHT22;10018;51.230;7.860;2023-11-21T09:41:21;9.00;99.90
19734;DHT22;10018;51.230;7.860;2023-11-21T09:43:52;9.10;99.90
19734;DHT22;10018;51.230;7.860;2023-11-21T09:46:21;9.10;99.90
19734;DHT22;10018;51.230;7.860;2023-11-21T09:48:51;9.10;99.90
19734;DHT22;10018;51.230;7.860;2023-11-21T09:51:19;9.10;99.90
19734;DHT22;10018;51.230;7.860;2023-11-21T09:53:50;9.20;99.90
19734;DHT22;10018;51.230;7.860;2023-11-21T09:56:18;9.20;99.90
19734;DHT22;10018;51.230;7.860;2023-11-21T09:58:52;9.30;99.90
19734;DHT22;10018;51.230;7.860;2023-11-21T10:01:19;9.40;99.90
19734;DHT22;10018;51.230;7.860;2023-11-21T10:03:46;9.40;99.90
19734;DHT22;10018;51.230;7.860;2023-11-21T10:06:13;9.40;99.90
19734;DHT22;10018;51.230;7.860;2023-11-21T10:08:42;9.50;99.90
19734;DHT22;10018;51.230;7.860;2023-11-21T10:11:08;9.50;99.90
19734;DHT22;10018;51.230;7.860;2023-11-21T10:13:37;9.50;99.90
19734;DHT22;10018;51.230;7.860;2023-11-21T10:16:05;9.50;99.90
19734;DHT22;10018;51.230;7.860;2023-11-21T10:18:33;9.50;99.90
19734;DHT22;10018;51.230;7.860;2023-11-21T10:21:00;9.60;99.90
19734;DHT22;10018;51.230;7.860;2023-11-21T10:23:27;9.60;99.90
19734;DHT22;10018;51.230;7.860;2023-11-21T10:25:53;9.60;99.90
19734;DHT22;10018;51.230;7.860;2023-11-21T10:28:20;9.60;99.90
19734;DHT22;10018;51.230;7.860;2023-11-21T10:30:46;9.60;99.90
19734;DHT22;10018;51.230;7.860;2023-11-21T10:33:11;9.70;99.90
19734;DHT22;10018;51.230;7.860;2023-11-21T10:35:45;9.70;99.90
19734;DHT22;10018;51.230;7.860;2023-11-21T10:38:21;9.70;99.90
19734;DHT22;10018;51.230;7.860;2023-11-21T10:40:49;9.70;99.90
19734;DHT22;10018;51.230;7.860;2023-11-21T10:43:15;9.70;99.90
19734;DHT22;10018;51.230;7.860;2023-11-21T10:45:42;9.80;99.90
19734;DHT22;10018;51.230;7.860;2023-11-21T10:48:12;9.80;99.90
19734;DHT22;10018;51.230;7.860;2023-11-21T10:50:42;9.80;99.90
19734;DHT22;10018;51.230;7.860;2023-11-21T10:53:09;9.80;99.90
19734;DHT22;10018;51.230;7.860;2023-11-21T10:55:34;9.80;99.90
19734;DHT22;10018;51.230;7.860;2023-11-21T10:58:02;9.90;99.90
19734;DHT22;10018;51.230;7.860;2023-11-21T11:00:29;9.90;99.90
19734;DHT22;10018;51.230;7.860;2023-11-21T11:02:55;9.90;99.90
19734;DHT22;10018;51.230;7.860;2023-11-21T11:05:23;9.90;99.90
19734;DHT22;10018;51.230;7.860;2023-11-21T11:07:52;9.90;99.90
19734;DHT22;10018;51.230;7.860;2023-11-21T11:10:23;9.90;99.90
19734;DHT22;10018;51.230;7.860;2023-11-21T11:12:51;9.90;99.90
19734;DHT22;10018;51.230;7.860;2023-11-21T11:15:21;9.90;99.90
19734;DHT22;10018;51.230;7.860;2023-11-21T11:17:48;9.90;99.90
19734;DHT22;10018;51.230;7.860;2023-11-21T11:20:17;9.80;99.90
19734;DHT22;10018;51.230;7.860;2023-11-21T11:28:20;9.80;99.90
19734;DHT22;10018;51.230;7.860;2023-11-21T11:36:06;9.70;99.90
19734;DHT22;10018;51.230;7.860;2023-11-21T11:38:34;9.60;99.90
19734;DHT22;10018;51.230;7.860;2023-11-21T11:41:05;9.60;99.90
19734;DHT22;10018;51.230;7.860;2023-11-21T11:43:33;9.60;99.90
19734;DHT22;10018;51.230;7.860;2023-11-21T11:46:10;9.60;99.90
19734;DHT22;10018;51.230;7.860;2023-11-21T11:48:38;9.60;99.90
19734;DHT22;10018;51.230;7.860;2023-11-21T11:51:12;9.50;99.90
19734;DHT22;10018;51.230;7.860;2023-11-21T11:53:40;9.50;99.90
19734;DHT22;10018;51.230;7.860;2023-11-21T11:56:31;9.40;99.90
19734;DHT22;10018;51.230;7.860;2023-11-21T11:59:00;9.40;99.90
19734;DHT22;10018;51.230;7.860;2023-11-21T12:01:28;9.40;99.90
19734;DHT22;10018;51.230;7.860;2023-11-21T12:07:01;9.30;99.90
19734;DHT22;10018;51.230;7.860;2023-11-21T12:09:28;9.20;99.90
19734;DHT22;10018;51.230;7.860;2023-11-21T12:11:56;9.20;99.90
19734;DHT22;10018;51.230;7.860;2023-11-21T12:14:25;9.20;99.90
19734;DHT22;10018;51.230;7.860;2023-11-21T12:16:51;9.30;99.90
19734;DHT22;10018;51.230;7.860;2023-11-21T12:19:17;9.30;99.90
19734;DHT22;10018;51.230;7.860;2023-11-21T12:21:43;9.30;99.90
19734;DHT22;10018;51.230;7.860;2023-11-21T12:24:09;9.30;99.90
19734;DHT22;10018;51.230;7.860;2023-11-21T12:26:39;9.30;99.90
19734;DHT22;10018;51.230;7.860;2023-11-21T12:29:07;9.30;99.90
19734;DHT22;10018;51.230;7.860;2023-11-21T12:31:36;9.30;99.90
19734;DHT22;10018;51.230;7.860;2023-11-21T12:34:04;9.30;99.90
19734;DHT22;10018;51.230;7.860;2023-11-21T12:36:31;9.30;99.90
19734;DHT22;10018;51.230;7.860;2023-11-21T12:38:59;9.30;99.90
19734;DHT22;10018;51.230;7.860;2023-11-21T12:41:25;9.30;99.90
19734;DHT22;10018;51.230;7.860;2023-11-21T12:43:51;9.30;99.90
19734;DHT22;10018;51.230;7.860;2023-11-21T12:46:19;9.40;99.90
19734;DHT22;10018;51.230;7.860;2023-11-21T12:48:46;9.30;99.90
19734;DHT22;10018;51.230;7.860;2023-11-21T12:51:12;9.30;99.90
19734;DHT22;10018;51.230;7.860;2023-11-21T12:53:41;9.30;99.90
19734;DHT22;10018;51.230;7.860;2023-11-21T12:56:10;9.30;99.90
19734;DHT22;10018;51.230;7.860;2023-11-21T12:58:40;9.40;99.90
19734;DHT22;10018;51.230;7.860;2023-11-21T13:01:10;9.30;99.90
19734;DHT22;10018;51.230;7.860;2023-11-21T13:03:42;9.30;99.90
19734;DHT22;10018;51.230;7.860;2023-11-21T13:06:10;9.30;99.90
19734;DHT22;10018;51.230;7.860;2023-11-21T13:08:38;9.30;99.90
19734;DHT22;10018;51.230;7.860;2023-11-21T13:11:05;9.30;99.90
19734;DHT22;10018;51.230;7.860;2023-11-21T13:13:34;9.20;99.90
19734;DHT22;10018;51.230;7.860;2023-11-21T13:16:01;9.20;99.90
19734;DHT22;10018;51.230;7.860;2023-11-21T13:18:32;9.20;99.90
19734;DHT22;10018;51.230;7.860;2023-11-21T13:21:01;9.10;99.90
19734;DHT22;10018;51.230;7.860;2023-11-21T13:23:28;9.10;99.90
19734;DHT22;10018;51.230;7.860;2023-11-21T13:25:55;9.10;99.90
19734;DHT22;10018;51.230;7.860;2023-11-21T13:28:21;9.10;99.90
19734;DHT22;10018;51.230;7.860;2023-11-21T13:30:48;9.20;99.90
19734;DHT22;10018;51.230;7.860;2023-11-21T13:33:14;9.10;99.90
19734;DHT22;10018;51.230;7.860;2023-11-21T13:35:45;9.10;99.90
19734;DHT22;10018;51.230;7.860;2023-11-21T13:38:18;9.10;99.90
19734;DHT22;10018;51.230;7.860;2023-11-21T13:40:48;9.10;99.90
19734;DHT22;10018;51.230;7.860;2023-11-21T13:43:21;9.00;99.90
19734;DHT22;10018;51.230;7.860;2023-11-21T13:45:49;8.90;99.90
19734;DHT22;10018;51.230;7.860;2023-11-21T13:48:20;9.00;99.90
19734;DHT22;10018;51.230;7.860;2023-11-21T13:50:53;8.80;99.90
19734;DHT22;10018;51.230;7.860;2023-11-21T13:53:27;8.80;99.90
19734;DHT22;10018;51.230;7.860;2023-11-21T13:55:54;8.70;99.90
19734;DHT22;10018;51.230;7.860;2023-11-21T13:58:20;8.70;99.90
19734;DHT22;10018;51.230;7.860;2023-11-21T14:01:05;8.70;99.90
19734;DHT22;10018;51.230;7.860;2023-11-21T14:03:34;8.60;99.90
19734;DHT22;10018;51.230;7.860;2023-11-21T14:06:10;8.60;99.90
19734;DHT22;10018;51.230;7.860;2023-11-21T14:08:40;8.50;99.90
19734;DHT22;10018;51.230;7.860;2023-11-21T14:11:07;8.50;99.90
19734;DHT22;10018;51.230;7.860;2023-11-21T14:13:33;8.50;99.90
19734;DHT22;10018;51.230;7.860;2023-11-21T14:15:59;8.60;99.90
19734;DHT22;10018;51.230;7.860;2023-11-21T14:18:26;8.50;99.90
19734;DHT22;10018;51.230;7.860;2023-11-21T14:21:18;8.50;99.90
19734;DHT22;10018;51.230;7.860;2023-11-21T14:23:44;8.50;99.90
19734;DHT22;10018;51.230;7.860;2023-11-21T14:26:13;8.50;99.90
19734;DHT22;10018;51.230;7.860;2023-11-21T14:28:40;8.50;99.90
19734;DHT22;10018;51.230;7.860;2023-11-21T14:31:07;8.50;99.90
19734;DHT22;10018;51.230;7.860;2023-11-21T14:33:33;8.40;99.90
19734;DHT22;10018;51.230;7.860;2023-11-21T14:35:59;8.50;99.90
19734;DHT22;10018;51.230;7.860;2023-11-21T14:38:24;8.50;99.90
19734;DHT22;10018;51.230;7.860;2023-11-21T14:40:50;8.50;99.90
19734;DHT22;10018;51.230;7.860;2023-11-21T14:43:15;8.50;99.90
19734;DHT22;10018;51.230;7.860;2023-11-21T14:45:42;8.50;99.90
19734;DHT22;10018;51.230;7.860;2023-11-21T14:48:08;8.50;99.90
19734;DHT22;10018;51.230;7.860;2023-11-21T14:50:41;8.50;99.90
19734;DHT22;10018;51.230;7.860;2023-11-21T14:53:11;8.60;99.90
19734;DHT22;10018;51.230;7.860;2023-11-21T14:55:38;8.50;99.90
19734;DHT22;10018;51.230;7.860;2023-11-21T14:58:22;8.50;99.90
19734;DHT22;10018;51.230;7.860;2023-11-21T15:00:54;8.60;99.90
19734;DHT22;10018;51.230;7.860;2023-11-21T15:03:27;8.50;99.90
19734;DHT22;10018;51.230;7.860;2023-11-21T15:05:56;8.60;99.90
19734;DHT22;10018;51.230;7.860;2023-11-21T15:08:22;8.50;99.90
19734;DHT22;10018;51.230;7.860;2023-11-21T15:10:55;8.50;99.90
19734;DHT22;10018;51.230;7.860;2023-11-21T15:13:21;8.50;99.90
19734;DHT22;10018;51.230;7.860;2023-11-21T15:15:51;8.40;99.90
19734;DHT22;10018;51.230;7.860;2023-11-21T15:18:22;8.50;99.90
19734;DHT22;10018;51.230;7.860;2023-11-21T15:20:49;8.50;99.90
19734;DHT22;10018;51.230;7.860;2023-11-21T15:23:17;8.50;99.90
19734;DHT22;10018;51.230;7.860;2023-11-21T15:25:45;8.40;99.90
19734;DHT22;10018;51.230;7.860;2023-11-21T15:28:10;8.40;99.90
19734;DHT22;10018;51.230;7.860;2023-11-21T15:30:36;8.40;99.90
19734;DHT22;10018;51.230;7.860;2023-11-21T15:33:02;8.40;99.90
19734;DHT22;10018;51.230;7.860;2023-11-21T15:35:29;8.30;99.90
19734;DHT22;10018;51.230;7.860;2023-11-21T15:37:55;8.30;99.90
19734;DHT22;10018;51.230;7.860;2023-11-21T15:40:24;8.20;99.90
19734;DHT22;10018;51.230;7.860;2023-11-21T15:42:50;8.20;99.90
19734;DHT22;10018;51.230;7.860;2023-11-21T15:45:16;8.10;99.90
19734;DHT22;10018;51.230;7.860;2023-11-21T15:47:44;8.00;99.90
19734;DHT22;10018;51.230;7.860;2023-11-21T15:50:10;8.00;99.90
19734;DHT22;10018;51.230;7.860;2023-11-21T15:52:36;7.90;99.90
19734;DHT22;10018;51.230;7.860;2023-11-21T15:55:07;7.80;99.90
19734;DHT22;10018;51.230;7.860;2023-11-21T15:57:34;7.70;99.90
19734;DHT22;10018;51.230;7.860;2023-11-21T15:59:59;7.70;99.90